Time;durP1;ratioP1;P1;durP2;ratioP2;P2;SDS_P1;SDS_P2;PMS_P1;PMS_P2;Temp;Humidity;BMP_temperature;BMP_pressure;BME280_temperature;BME280_humidity;BME280_pressure;Samples;Min_cycle;Max_cycle;Signal;HPM_P1;HPM_P2
2023/06/01 00:00:17;;;;;;;7.00;2.70;;;13.20;99.90;;;;;;4218231;28;20043;-86
2023/06/01 00:02:18;;;;;;;18.13;3.72;;;13.10;99.90;;;;;;4217807;28;20044;-86
2023/06/01 00:04:19;;;;;;;9.10;2.47;;;13.10;99.90;;;;;;4218513;28;20103;-85
2023/06/01 00:06:20;;;;;;;8.25;3.05;;;13.10;99.90;;;;;;4216467;28;20044;-86
2023/06/01 00:08:22;;;;;;;14.85;3.20;;;13.00;99.90;;;;;;4198704;28;20052;-86
2023/06/01 00:10:23;;;;;;;8.75;2.33;;;13.00;99.90;;;;;;4216686;28;20454;-86
2023/06/01 00:12:23;;;;;;;8.32;2.60;;;13.00;99.90;;;;;;4198603;28;20049;-86
2023/06/01 00:14:24;;;;;;;11.30;3.10;;;13.00;99.90;;;;;;4217024;28;20535;-86
2023/06/01 00:16:25;;;;;;;12.18;2.95;;;13.00;99.90;;;;;;4216049;28;20040;-87
2023/06/01 00:18:27;;;;;;;10.10;3.28;;;13.00;99.90;;;;;;4199201;28;20048;-86
2023/06/01 00:20:28;;;;;;;9.70;2.92;;;13.00;99.90;;;;;;4198169;28;20051;-86
2023/06/01 00:22:34;;;;;;;9.45;2.85;;;13.00;99.90;;;;;;4198570;28;20064;-86
2023/06/01 00:24:37;;;;;;;9.07;3.33;;;13.00;99.90;;;;;;4216292;28;20477;-86
2023/06/01 00:26:37;;;;;;;9.85;2.50;;;13.00;99.90;;;;;;4216501;28;20044;-86
2023/06/01 00:28:38;;;;;;;7.80;3.03;;;13.00;99.90;;;;;;4216987;28;20404;-85
2023/06/01 00:30:39;;;;;;;9.07;2.97;;;13.00;99.90;;;;;;4215944;28;20054;-86
2023/06/01 00:32:40;;;;;;;9.18;2.70;;;13.00;99.90;;;;;;4216530;28;20062;-85
2023/06/01 00:34:40;;;;;;;8.00;2.97;;;13.00;99.90;;;;;;4216450;28;20408;-85
2023/06/01 00:36:41;;;;;;;6.28;3.15;;;13.00;99.90;;;;;;4216879;28;20119;-86
2023/06/01 00:38:43;;;;;;;10.50;2.50;;;13.00;99.90;;;;;;4216407;28;20399;-86
2023/06/01 00:40:44;;;;;;;12.18;3.15;;;12.90;99.90;;;;;;4216511;28;20040;-85
2023/06/01 00:42:45;;;;;;;9.70;3.10;;;12.90;99.90;;;;;;4198729;28;20424;-85
2023/06/01 00:44:46;;;;;;;12.65;2.80;;;12.80;99.90;;;;;;4215583;28;20151;-85
2023/06/01 00:46:47;;;;;;;9.70;3.10;;;12.90;99.90;;;;;;4216154;28;20055;-84
2023/06/01 00:48:48;;;;;;;10.73;2.80;;;12.80;99.90;;;;;;4198267;28;20067;-85
2023/06/01 00:50:49;;;;;;;11.60;3.40;;;12.80;99.90;;;;;;4217051;28;20077;-85
2023/06/01 00:52:51;;;;;;;9.43;3.38;;;12.80;99.90;;;;;;4216629;28;20121;-84
2023/06/01 00:54:52;;;;;;;6.85;3.08;;;12.90;99.90;;;;;;4216670;28;20123;-85
2023/06/01 00:56:53;;;;;;;9.00;2.63;;;12.90;99.90;;;;;;4216718;28;20431;-84
2023/06/01 00:58:54;;;;;;;16.10;4.28;;;12.90;99.90;;;;;;4217312;28;20040;-85
2023/06/01 01:00:56;;;;;;;12.82;2.83;;;12.90;99.90;;;;;;4199749;28;20531;-86
2023/06/01 01:02:57;;;;;;;8.88;3.03;;;12.90;99.90;;;;;;4216175;28;20479;-85
2023/06/01 01:04:59;;;;;;;6.97;3.30;;;13.00;99.90;;;;;;4198977;28;20052;-86
2023/06/01 01:07:20;;;;;;;11.35;3.08;;;13.00;99.90;;;;;;4198408;28;20044;-85
2023/06/01 01:09:27;;;;;;;13.90;3.10;;;13.00;99.90;;;;;;4214234;28;20058;-84
2023/06/01 01:11:32;;;;;;;10.85;3.90;;;13.00;99.90;;;;;;4217034;28;20403;-84
2023/06/01 01:13:50;;;;;;;9.77;3.55;;;13.00;99.90;;;;;;4215825;28;20097;-84
2023/06/01 01:16:07;;;;;;;14.80;2.85;;;13.00;99.90;;;;;;4183116;28;20055;-84
2023/06/01 01:18:17;;;;;;;8.50;3.17;;;13.00;99.90;;;;;;4212153;28;20040;-84
2023/06/01 01:20:22;;;;;;;9.68;3.80;;;12.30;99.90;;;;;;4216898;28;20047;-84
2023/06/01 01:22:57;;;;;;;13.20;4.03;;;13.00;99.90;;;;;;4215719;28;20052;-84
2023/06/01 01:25:10;;;;;;;10.30;3.63;;;13.00;99.90;;;;;;4216192;28;20056;-84
2023/06/01 01:27:51;;;;;;;7.05;2.83;;;12.90;99.90;;;;;;4191091;28;20056;-84
2023/06/01 01:29:59;;;;;;;10.80;3.00;;;12.90;99.90;;;;;;4200050;28;20056;-84
2023/06/01 01:32:03;;;;;;;9.80;3.80;;;12.80;99.90;;;;;;4182751;28;21036;-84
2023/06/01 01:34:07;;;;;;;9.80;3.25;;;12.80;99.90;;;;;;4181841;28;20049;-84
2023/06/01 01:36:10;;;;;;;7.90;2.95;;;12.70;99.90;;;;;;4199979;28;20127;-84
2023/06/01 01:38:11;;;;;;;7.38;2.83;;;12.80;99.90;;;;;;4198992;28;20080;-84
2023/06/01 01:40:12;;;;;;;10.10;2.88;;;12.70;99.90;;;;;;4198747;28;20373;-84
2023/06/01 01:42:12;;;;;;;5.53;2.90;;;12.70;99.90;;;;;;4199474;28;20053;-85
2023/06/01 01:44:14;;;;;;;9.38;2.70;;;12.70;99.90;;;;;;4198709;28;20044;-84
2023/06/01 01:46:26;;;;;;;6.57;2.50;;;12.70;99.90;;;;;;4181304;28;20040;-84
2023/06/01 01:48:43;;;;;;;8.15;2.78;;;12.70;99.90;;;;;;4198583;28;20048;-84
2023/06/01 01:51:02;;;;;;;12.50;3.70;;;12.60;99.90;;;;;;4198564;28;20395;-84
2023/06/01 01:53:04;;;;;;;;;;;12.60;99.90;;;;;;4198980;28;20059;-84
2023/06/01 01:55:08;;;;;;;10.10;3.30;;;12.60;99.90;;;;;;4198689;28;20039;-83
2023/06/01 01:57:09;;;;;;;7.47;2.70;;;12.60;99.90;;;;;;4180633;28;20520;-84
2023/06/01 01:59:10;;;;;;;8.30;2.92;;;12.60;99.90;;;;;;4181147;28;20091;-84
2023/06/01 02:01:12;;;;;;;8.50;3.38;;;12.60;99.90;;;;;;4180650;28;20056;-84
2023/06/01 02:03:16;;;;;;;12.90;2.50;;;12.60;99.90;;;;;;4180834;28;20057;-83
2023/06/01 02:05:19;;;;;;;7.38;3.03;;;12.60;99.90;;;;;;4198743;28;20044;-84
2023/06/01 02:07:20;;;;;;;5.35;2.67;;;12.60;99.90;;;;;;4198318;28;20078;-84
2023/06/01 02:09:21;;;;;;;8.10;2.30;;;12.50;99.90;;;;;;4198503;28;20041;-85
2023/06/01 02:11:21;;;;;;;10.88;2.22;;;12.50;99.90;;;;;;4197828;28;20118;-84
2023/06/01 02:13:22;;;;;;;9.73;2.40;;;12.50;99.90;;;;;;4197784;28;20049;-84
2023/06/01 02:15:23;;;;;;;9.35;2.60;;;12.50;99.90;;;;;;4197691;28;20040;-84
2023/06/01 02:17:26;;;;;;;11.93;2.55;;;12.50;99.90;;;;;;4180468;28;20055;-84
2023/06/01 02:19:27;;;;;;;4.65;2.00;;;12.60;99.90;;;;;;4197685;28;20043;-84
2023/06/01 02:21:29;;;;;;;6.85;2.05;;;12.60;99.90;;;;;;4179987;28;20064;-84
2023/06/01 02:23:30;;;;;;;7.53;2.13;;;12.60;99.90;;;;;;4180226;28;20051;-84
2023/06/01 02:25:31;;;;;;;10.98;2.25;;;12.60;99.90;;;;;;4180712;28;20132;-84
2023/06/01 02:27:33;;;;;;;6.20;2.40;;;12.60;99.90;;;;;;4180035;28;20049;-84
2023/06/01 02:29:34;;;;;;;12.45;3.95;;;12.60;99.90;;;;;;4181107;28;20049;-84
2023/06/01 02:31:35;;;;;;;8.10;2.10;;;12.60;99.90;;;;;;4181626;28;20045;-84
2023/06/01 02:33:38;;;;;;;11.93;2.90;;;12.60;99.90;;;;;;4181169;28;20374;-84
2023/06/01 02:35:39;;;;;;;5.28;1.83;;;12.60;99.90;;;;;;4181650;28;20045;-84
2023/06/01 02:37:40;;;;;;;7.60;2.45;;;12.60;99.90;;;;;;4181385;28;20489;-83
2023/06/01 02:39:41;;;;;;;6.93;2.10;;;12.60;99.90;;;;;;4180722;28;20059;-83
2023/06/01 02:41:41;;;;;;;9.43;2.40;;;12.60;99.90;;;;;;4181287;28;20037;-84
2023/06/01 02:43:42;;;;;;;7.63;3.00;;;12.60;99.90;;;;;;4180787;28;20182;-84
2023/06/01 02:45:43;;;;;;;6.65;1.90;;;12.60;99.90;;;;;;4181304;28;20464;-84
2023/06/01 02:47:44;;;;;;;8.20;2.45;;;12.60;99.90;;;;;;4180403;28;20052;-84
2023/06/01 02:49:45;;;;;;;8.95;2.28;;;12.60;99.90;;;;;;4179643;28;20091;-84
2023/06/01 02:51:46;;;;;;;6.97;3.33;;;12.60;99.90;;;;;;4181100;28;20052;-83
2023/06/01 02:53:47;;;;;;;9.55;2.67;;;12.60;99.90;;;;;;4180737;28;20045;-85
2023/06/01 02:55:47;;;;;;;11.88;2.97;;;12.60;99.90;;;;;;4180705;28;20037;-85
2023/06/01 02:57:48;;;;;;;7.57;2.22;;;12.60;99.90;;;;;;4180354;28;20045;-85
2023/06/01 02:59:49;;;;;;;9.27;2.97;;;12.60;99.90;;;;;;4181164;28;20037;-84
2023/06/01 03:01:50;;;;;;;8.93;3.22;;;12.50;99.90;;;;;;4180720;28;20053;-84
2023/06/01 03:03:52;;;;;;;10.55;2.88;;;12.50;99.90;;;;;;4181526;28;20498;-85
2023/06/01 03:05:55;;;;;;;12.85;2.53;;;12.50;99.90;;;;;;4180719;28;20447;-85
2023/06/01 03:07:55;;;;;;;7.28;2.70;;;12.50;99.90;;;;;;4180427;28;20049;-85
2023/06/01 03:09:56;;;;;;;11.13;2.63;;;12.50;99.90;;;;;;4183630;28;20515;-85
2023/06/01 03:11:57;;;;;;;8.63;2.83;;;12.50;99.90;;;;;;4184510;28;20413;-85
2023/06/01 03:13:58;;;;;;;11.30;2.95;;;12.50;99.90;;;;;;4184206;28;20056;-84
2023/06/01 03:15:59;;;;;;;11.50;2.55;;;12.50;99.90;;;;;;4184072;28;20378;-85
2023/06/01 03:18:01;;;;;;;6.63;2.50;;;12.50;99.90;;;;;;4184454;28;20048;-85
2023/06/01 03:20:07;;;;;;;9.50;2.88;;;12.50;99.90;;;;;;4183980;28;20099;-84
2023/06/01 03:22:14;;;;;;;9.98;2.83;;;12.50;99.90;;;;;;4199236;28;20060;-84
2023/06/01 03:24:17;;;;;;;9.02;2.30;;;12.40;99.90;;;;;;4183442;28;20053;-82
2023/06/01 03:26:20;;;;;;;9.38;3.00;;;12.40;99.90;;;;;;4184990;28;20059;-84
2023/06/01 03:28:21;;;;;;;20.17;3.33;;;12.40;99.90;;;;;;4200213;28;20068;-84
2023/06/01 03:30:22;;;;;;;6.75;2.40;;;12.40;99.90;;;;;;4183236;28;20057;-84
2023/06/01 03:32:23;;;;;;;11.20;3.17;;;12.40;99.90;;;;;;4194114;28;20156;-84
2023/06/01 03:34:23;;;;;;;9.68;3.15;;;12.50;99.90;;;;;;4201695;28;20044;-83
2023/06/01 03:36:25;;;;;;;14.50;3.90;;;12.40;99.90;;;;;;4200966;28;20048;-84
2023/06/01 03:38:25;;;;;;;10.70;2.58;;;12.30;99.90;;;;;;4201011;28;20115;-84
2023/06/01 03:40:26;;;;;;;13.02;4.18;;;12.40;99.90;;;;;;4200914;28;20036;-84
2023/06/01 03:42:27;;;;;;;8.95;2.92;;;12.30;99.90;;;;;;4195322;28;20404;-83
2023/06/01 03:44:28;;;;;;;8.93;3.03;;;12.30;99.90;;;;;;4183230;28;20049;-83
2023/06/01 03:46:29;;;;;;;12.43;3.13;;;12.30;99.90;;;;;;4183808;28;20052;-83
2023/06/01 03:48:30;;;;;;;10.75;3.03;;;12.30;99.90;;;;;;4183426;28;20048;-83
2023/06/01 03:50:31;;;;;;;8.80;2.92;;;12.30;99.90;;;;;;4183628;28;20508;-83
2023/06/01 03:52:32;;;;;;;9.65;2.97;;;12.30;99.90;;;;;;4183627;28;20059;-83
2023/06/01 03:54:33;;;;;;;7.05;2.58;;;12.30;99.90;;;;;;4183277;28;20116;-83
2023/06/01 03:56:35;;;;;;;9.93;4.20;;;12.30;99.90;;;;;;4183734;28;20064;-83
2023/06/01 03:58:36;;;;;;;8.20;2.40;;;12.30;99.90;;;;;;4183659;28;20127;-83
2023/06/01 04:00:37;;;;;;;12.65;3.40;;;12.40;99.90;;;;;;4183893;28;20048;-83
2023/06/01 04:02:40;;;;;;;9.55;3.13;;;12.40;99.90;;;;;;4165761;28;20071;-83
2023/06/01 04:04:45;;;;;;;8.82;2.60;;;12.30;99.90;;;;;;4183788;28;20041;-83
2023/06/01 04:06:45;;;;;;;10.82;3.17;;;12.30;99.90;;;;;;4184426;28;20087;-82
2023/06/01 04:08:50;;;;;;;9.90;3.47;;;12.30;99.90;;;;;;4183281;28;20044;-83
2023/06/01 04:10:51;;;;;;;10.30;4.28;;;12.30;99.90;;;;;;4182927;28;20057;-84
2023/06/01 04:12:52;;;;;;;6.18;2.30;;;12.30;99.90;;;;;;4181943;28;20111;-83
2023/06/01 04:14:52;;;;;;;9.20;2.22;;;12.30;99.90;;;;;;4182449;28;20049;-83
2023/06/01 04:16:53;;;;;;;12.27;3.75;;;12.30;99.90;;;;;;4182359;28;20053;-83
2023/06/01 04:18:54;;;;;;;9.07;2.55;;;12.30;99.90;;;;;;4184206;28;20049;-84
2023/06/01 04:20:55;;;;;;;8.35;2.38;;;12.30;99.90;;;;;;4183081;28;20037;-84
2023/06/01 04:23:01;;;;;;;14.98;3.28;;;12.30;99.90;;;;;;4196835;28;20072;-84
2023/06/01 04:25:05;;;;;;;11.70;3.03;;;12.30;99.90;;;;;;4182617;28;20041;-84
2023/06/01 04:27:08;;;;;;;9.45;2.35;;;12.20;99.90;;;;;;4183215;28;20531;-85
2023/06/01 04:29:11;;;;;;;7.90;2.45;;;12.30;99.90;;;;;;4201051;28;20047;-84
2023/06/01 04:31:19;;;;;;;8.45;2.58;;;12.20;99.90;;;;;;4200767;28;20083;-84
2023/06/01 04:33:22;;;;;;;9.18;2.10;;;12.20;99.90;;;;;;4200691;28;20041;-85
2023/06/01 04:35:22;;;;;;;6.65;2.03;;;12.20;99.90;;;;;;4201241;28;20077;-84
2023/06/01 04:37:24;;;;;;;7.65;2.00;;;12.20;99.90;;;;;;4182949;28;20049;-84
2023/06/01 04:39:25;;;;;;;6.05;1.98;;;12.20;99.90;;;;;;4200763;28;20450;-84
2023/06/01 04:41:26;;;;;;;7.47;2.17;;;12.20;99.90;;;;;;4182243;28;20041;-83
2023/06/01 04:43:27;;;;;;;11.95;2.10;;;12.20;99.90;;;;;;4198900;28;20182;-84
2023/06/01 04:45:33;;;;;;;6.13;2.17;;;12.20;99.90;;;;;;4199472;28;20103;-84
2023/06/01 04:47:39;;;;;;;8.73;2.70;;;12.20;99.90;;;;;;4199031;28;20040;-84
2023/06/01 04:49:41;;;;;;;9.32;3.05;;;12.20;99.90;;;;;;4199617;28;20074;-84
2023/06/01 04:51:44;;;;;;;5.88;2.17;;;12.20;99.90;;;;;;4166590;28;20073;-83
2023/06/01 04:53:51;;;;;;;10.48;2.78;;;12.20;99.90;;;;;;4198637;28;20096;-84
2023/06/01 04:55:51;;;;;;;4.53;2.20;;;12.20;99.90;;;;;;4181507;28;20048;-84
2023/06/01 04:57:53;;;;;;;8.02;2.20;;;12.20;99.90;;;;;;4180947;28;20455;-84
2023/06/01 04:59:56;;;;;;;6.50;2.72;;;12.20;99.90;;;;;;4199344;28;20115;-82
2023/06/01 05:01:57;;;;;;;9.13;3.17;;;12.20;99.90;;;;;;4199567;28;20068;-84
2023/06/01 05:03:58;;;;;;;6.43;2.13;;;12.20;99.90;;;;;;4200238;28;20039;-84
2023/06/01 05:05:59;;;;;;;4.57;2.15;;;12.20;99.90;;;;;;4200423;28;20070;-82
2023/06/01 05:08:00;;;;;;;9.05;2.75;;;12.20;99.90;;;;;;4199455;28;20135;-83
2023/06/01 05:10:05;;;;;;;7.43;2.10;;;12.30;99.90;;;;;;4200210;28;20098;-83
2023/06/01 05:12:07;;;;;;;5.97;1.90;;;12.30;99.90;;;;;;4199622;28;20055;-84
2023/06/01 05:14:07;;;;;;;9.68;2.05;;;12.30;99.90;;;;;;4200831;28;20047;-83
2023/06/01 05:16:08;;;;;;;10.00;2.00;;;12.30;99.90;;;;;;4215771;28;20488;-83
2023/06/01 05:18:09;;;;;;;7.05;2.42;;;12.30;99.90;;;;;;4197959;28;20558;-83
2023/06/01 05:20:11;;;;;;;2.97;1.80;;;12.30;99.90;;;;;;4216175;28;20487;-84
2023/06/01 05:22:11;;;;;;;7.88;2.95;;;12.30;99.90;;;;;;4196960;28;20060;-84
2023/06/01 05:24:13;;;;;;;11.15;2.40;;;12.30;99.90;;;;;;4197934;28;20083;-84
2023/06/01 05:26:14;;;;;;;8.35;2.20;;;12.40;99.90;;;;;;4198629;28;20539;-84
2023/06/01 05:28:15;;;;;;;8.48;2.10;;;12.40;99.90;;;;;;4182364;28;20052;-85
2023/06/01 05:30:25;;;;;;;6.28;2.33;;;12.40;99.90;;;;;;4198204;28;20040;-84
2023/06/01 05:32:26;;;;;;;5.88;2.50;;;12.40;99.90;;;;;;4197867;28;20040;-83
2023/06/01 05:34:26;;;;;;;7.43;2.90;;;12.40;99.90;;;;;;4199025;28;20381;-84
2023/06/01 05:36:27;;;;;;;8.52;2.70;;;12.40;99.90;;;;;;4200140;28;20078;-84
2023/06/01 05:38:28;;;;;;;7.93;2.35;;;12.40;99.90;;;;;;4200422;28;20067;-85
2023/06/01 05:40:30;;;;;;;4.90;2.60;;;12.50;99.90;;;;;;4198910;28;20450;-85
2023/06/01 05:42:31;;;;;;;7.15;2.50;;;12.40;99.90;;;;;;4197831;28;20115;-84
2023/06/01 05:44:32;;;;;;;5.70;2.40;;;12.40;99.90;;;;;;4197992;28;20127;-84
2023/06/01 05:46:33;;;;;;;4.32;1.80;;;12.50;99.90;;;;;;4198678;28;20056;-84
2023/06/01 05:48:34;;;;;;;6.47;1.60;;;12.40;99.90;;;;;;4198729;28;20043;-84
2023/06/01 05:50:34;;;;;;;4.22;1.60;;;12.50;99.90;;;;;;4197616;28;20048;-84
2023/06/01 05:52:35;;;;;;;5.10;2.17;;;12.50;99.90;;;;;;4180331;28;20055;-84
2023/06/01 05:54:36;;;;;;;3.92;1.27;;;12.50;99.90;;;;;;4197460;28;20048;-84
2023/06/01 05:56:45;;;;;;;5.88;1.75;;;12.50;99.90;;;;;;4197078;28;20049;-84
2023/06/01 05:58:50;;;;;;;2.22;1.38;;;12.50;99.90;;;;;;4197926;28;20536;-85
2023/06/01 06:00:51;;;;;;;5.50;1.30;;;12.50;99.90;;;;;;4197680;28;20078;-85
2023/06/01 06:02:51;;;;;;;3.65;1.30;;;12.50;99.90;;;;;;4198677;28;20501;-85
2023/06/01 06:04:52;;;;;;;2.88;1.60;;;12.50;99.90;;;;;;4196887;28;20106;-84
2023/06/01 06:06:53;;;;;;;4.20;1.70;;;12.50;99.90;;;;;;4197228;28;20607;-84
2023/06/01 06:08:55;;;;;;;2.70;1.25;;;12.50;99.90;;;;;;4197780;28;20084;-84
2023/06/01 06:10:56;;;;;;;5.72;1.55;;;12.60;99.90;;;;;;4196731;28;20056;-85
2023/06/01 06:12:58;;;;;;;4.30;1.55;;;12.60;99.90;;;;;;4180081;28;20392;-86
2023/06/01 06:14:58;;;;;;;3.17;1.15;;;12.60;99.90;;;;;;4196795;28;20044;-86
2023/06/01 06:17:00;;;;;;;4.63;1.55;;;12.60;99.90;;;;;;4198793;28;20048;-85
2023/06/01 06:19:00;;;;;;;3.65;1.55;;;12.60;99.90;;;;;;4198135;28;20076;-85
2023/06/01 06:21:01;;;;;;;3.30;1.88;;;12.70;99.90;;;;;;4198851;28;20044;-86
2023/06/01 06:23:02;;;;;;;4.63;1.30;;;12.70;99.90;;;;;;4193204;28;20063;-85
2023/06/01 06:25:04;;;;;;;2.08;1.20;;;12.70;99.90;;;;;;4196259;28;20115;-85
2023/06/01 06:27:05;;;;;;;5.32;1.30;;;12.70;99.90;;;;;;4197296;28;20048;-85
2023/06/01 06:29:06;;;;;;;4.97;1.10;;;12.70;99.90;;;;;;4192749;28;20041;-86
2023/06/01 06:31:07;;;;;;;4.57;1.48;;;12.70;99.90;;;;;;4198085;28;20377;-86
2023/06/01 06:33:09;;;;;;;3.63;1.10;;;12.70;99.90;;;;;;4196300;28;20044;-84
2023/06/01 06:35:12;;;;;;;3.33;0.77;;;12.70;99.90;;;;;;4198079;28;20087;-86
2023/06/01 06:37:13;;;;;;;2.88;0.82;;;12.70;99.90;;;;;;4196081;28;20059;-86
2023/06/01 06:39:15;;;;;;;5.90;1.20;;;12.70;99.90;;;;;;4197275;28;20480;-86
2023/06/01 06:41:16;;;;;;;2.38;1.05;;;12.80;99.90;;;;;;4191147;28;20051;-86
2023/06/01 06:43:17;;;;;;;2.33;1.02;;;12.80;99.90;;;;;;4195376;28;20131;-85
2023/06/01 06:45:18;;;;;;;2.83;0.70;;;12.80;99.90;;;;;;4196815;28;20032;-85
2023/06/01 06:47:19;;;;;;;6.07;1.17;;;12.80;99.90;;;;;;4195180;28;20080;-85
2023/06/01 06:49:20;;;;;;;4.38;1.10;;;12.80;99.90;;;;;;4196697;28;20059;-85
2023/06/01 06:51:21;;;;;;;2.88;1.10;;;12.80;99.90;;;;;;4196107;28;20044;-85
2023/06/01 06:53:22;;;;;;;2.78;1.10;;;12.80;99.90;;;;;;4197206;28;20041;-84
2023/06/01 06:55:23;;;;;;;3.15;1.10;;;12.80;99.90;;;;;;4195628;28;20040;-85
2023/06/01 06:57:24;;;;;;;5.68;1.17;;;12.80;99.90;;;;;;4197595;28;20400;-84
2023/06/01 06:59:25;;;;;;;2.03;1.20;;;12.80;99.90;;;;;;4196866;28;20045;-84
2023/06/01 07:01:26;;;;;;;2.25;1.30;;;12.80;99.90;;;;;;4195042;28;20048;-84
2023/06/01 07:03:28;;;;;;;6.43;1.17;;;12.90;99.90;;;;;;4198561;28;20737;-86
2023/06/01 07:05:29;;;;;;;5.65;1.77;;;12.50;99.90;;;;;;4186073;28;20037;-86
2023/06/01 07:07:30;;;;;;;3.42;1.33;;;12.80;99.90;;;;;;4186247;28;20121;-85
2023/06/01 07:09:31;;;;;;;3.17;1.50;;;12.80;99.90;;;;;;4195667;28;20052;-85
2023/06/01 07:11:31;;;;;;;4.68;2.10;;;12.80;99.90;;;;;;4184307;28;20045;-84
2023/06/01 07:13:35;;;;;;;3.75;1.48;;;12.50;99.90;;;;;;4196678;28;20391;-85
2023/06/01 07:15:36;;;;;;;4.43;1.98;;;12.80;99.90;;;;;;4196011;28;20049;-86
2023/06/01 07:17:37;;;;;;;8.25;2.10;;;12.80;99.90;;;;;;4197395;28;20048;-85
2023/06/01 07:19:38;;;;;;;2.72;1.70;;;12.90;99.90;;;;;;4196893;28;20036;-86
2023/06/01 07:21:39;;;;;;;2.70;1.88;;;12.90;99.90;;;;;;4195923;28;20078;-85
2023/06/01 07:23:43;;;;;;;2.63;1.30;;;12.90;99.90;;;;;;4195254;28;20041;-85
2023/06/01 07:25:43;;;;;;;4.53;1.70;;;13.00;99.90;;;;;;4196528;28;20115;-86
2023/06/01 07:27:48;;;;;;;4.13;1.65;;;13.00;99.90;;;;;;4195339;28;20037;-86
2023/06/01 07:29:54;;;;;;;4.95;1.33;;;13.00;99.90;;;;;;4195799;28;20041;-86
2023/06/01 07:31:55;;;;;;;3.78;1.38;;;13.00;99.90;;;;;;4197075;28;20033;-86
2023/06/01 07:33:56;;;;;;;3.65;1.40;;;13.00;99.90;;;;;;4191083;28;20043;-86
2023/06/01 07:35:58;;;;;;;5.47;1.42;;;13.00;99.90;;;;;;4186746;28;20037;-86
2023/06/01 07:37:58;;;;;;;4.50;1.55;;;13.00;99.90;;;;;;4196383;28;20118;-86
2023/06/01 07:39:59;;;;;;;4.65;2.00;;;13.00;99.90;;;;;;4192716;28;20481;-86
2023/06/01 07:42:01;;;;;;;6.38;1.77;;;13.00;99.90;;;;;;4197282;28;20072;-85
2023/06/01 07:44:01;;;;;;;3.70;1.42;;;13.00;99.90;;;;;;4197409;28;20040;-86
2023/06/01 07:46:02;;;;;;;3.58;1.30;;;13.00;99.90;;;;;;4196335;28;20087;-85
2023/06/01 07:48:03;;;;;;;2.42;1.15;;;13.00;99.90;;;;;;4195727;28;20051;-86
2023/06/01 07:50:05;;;;;;;6.97;1.38;;;13.00;99.90;;;;;;4197214;28;20074;-86
2023/06/01 07:52:07;;;;;;;3.33;1.27;;;13.00;99.90;;;;;;4186602;28;20128;-86
2023/06/01 07:54:08;;;;;;;3.58;1.30;;;13.00;99.90;;;;;;4188371;28;20041;-84
2023/06/01 07:56:08;;;;;;;2.88;1.40;;;13.10;99.90;;;;;;4199526;28;20125;-85
2023/06/01 07:58:09;;;;;;;2.65;1.35;;;13.10;99.90;;;;;;4199858;28;20072;-85
2023/06/01 08:00:12;;;;;;;2.90;0.95;;;13.10;99.90;;;;;;4200424;28;20032;-86
2023/06/01 08:02:13;;;;;;;3.97;0.85;;;13.20;99.90;;;;;;4197931;28;20083;-85
2023/06/01 08:04:14;;;;;;;2.10;0.90;;;13.30;99.90;;;;;;4185409;28;20037;-85
2023/06/01 08:06:15;;;;;;;2.47;1.00;;;13.40;99.90;;;;;;4190082;28;20037;-84
2023/06/01 08:08:16;;;;;;;6.38;1.50;;;13.50;99.90;;;;;;4200313;28;20420;-84
2023/06/01 08:10:16;;;;;;;13.32;2.85;;;13.50;99.90;;;;;;4198380;28;20128;-85
2023/06/01 08:12:18;;;;;;;4.00;1.30;;;13.60;99.90;;;;;;4200858;28;20503;-86
2023/06/01 08:14:19;;;;;;;4.15;1.65;;;13.60;99.90;;;;;;4198974;28;20048;-87
2023/06/01 08:16:20;;;;;;;6.10;2.00;;;13.60;99.90;;;;;;4200039;28;20397;-86
2023/06/01 08:18:22;;;;;;;10.85;2.50;;;13.60;99.90;;;;;;4198147;28;20099;-86
2023/06/01 08:20:23;;;;;;;8.77;2.15;;;13.60;99.90;;;;;;4200235;28;20070;-86
2023/06/01 08:22:24;;;;;;;11.43;3.25;;;13.60;99.90;;;;;;4199073;28;20123;-86
2023/06/01 08:24:25;;;;;;;9.65;2.10;;;13.60;99.90;;;;;;4198028;28;20539;-86
2023/06/01 08:26:25;;;;;;;5.40;2.10;;;13.60;99.90;;;;;;4200576;28;20092;-86
2023/06/01 08:28:26;;;;;;;6.20;2.00;;;13.60;99.90;;;;;;4198120;28;20078;-83
2023/06/01 08:30:27;;;;;;;3.80;1.75;;;13.60;99.90;;;;;;4214707;28;20048;-84
2023/06/01 08:32:28;;;;;;;4.63;1.90;;;13.60;99.90;;;;;;4194956;28;20045;-83
2023/06/01 08:34:29;;;;;;;7.03;2.28;;;13.60;99.90;;;;;;4196084;28;20040;-83
2023/06/01 08:36:30;;;;;;;9.52;3.47;;;13.60;99.90;;;;;;4191086;28;20048;-83
2023/06/01 08:38:32;;;;;;;9.95;2.55;;;13.60;99.90;;;;;;4199105;28;20056;-83
2023/06/01 08:40:33;;;;;;;12.32;4.47;;;13.60;99.90;;;;;;4197984;28;20048;-83
2023/06/01 08:42:44;;;;;;;8.10;2.65;;;13.60;99.90;;;;;;4198972;28;20500;-83
2023/06/01 08:44:46;;;;;;;5.70;1.92;;;13.60;99.90;;;;;;4199056;28;20087;-83
2023/06/01 08:46:47;;;;;;;15.13;3.47;;;13.60;99.90;;;;;;4198264;28;20058;-83
2023/06/01 08:48:53;;;;;;;5.88;2.03;;;13.60;99.90;;;;;;4198494;28;20051;-83
2023/06/01 08:50:56;;;;;;;7.50;2.22;;;13.50;99.90;;;;;;4199068;28;20055;-83
2023/06/01 08:52:59;;;;;;;8.63;2.22;;;13.60;99.90;;;;;;4192380;28;20053;-82
2023/06/01 08:55:03;;;;;;;8.90;1.98;;;13.60;99.90;;;;;;4199054;28;20041;-83
2023/06/01 08:57:07;;;;;;;6.00;1.65;;;13.60;99.90;;;;;;4199064;28;20124;-82
2023/06/01 08:59:11;;;;;;;4.35;1.48;;;13.60;99.90;;;;;;4198893;28;20051;-83
2023/06/01 09:01:21;;;;;;;6.28;2.30;;;13.60;99.90;;;;;;4198729;28;20099;-84
2023/06/01 09:03:22;;;;;;;13.85;3.17;;;13.60;99.90;;;;;;4199478;28;20071;-83
2023/06/01 09:05:22;;;;;;;7.20;2.50;;;13.70;99.90;;;;;;4198611;28;20040;-84
2023/06/01 09:07:24;;;;;;;10.60;1.90;;;13.70;99.90;;;;;;4198627;28;20106;-83
2023/06/01 09:09:25;;;;;;;9.20;2.78;;;13.70;99.90;;;;;;4197845;28;20516;-83
2023/06/01 09:11:26;;;;;;;5.57;1.73;;;13.80;99.90;;;;;;4199153;28;20078;-83
2023/06/01 09:13:35;;;;;;;6.65;1.52;;;13.80;99.90;;;;;;4199071;28;20418;-83
2023/06/01 09:15:51;;;;;;;6.53;1.50;;;13.80;99.90;;;;;;4198371;28;20048;-83
2023/06/01 09:18:03;;;;;;;12.27;1.67;;;13.90;99.90;;;;;;4199460;28;20381;-83
2023/06/01 09:20:05;;;;;;;9.85;2.45;;;13.90;99.90;;;;;;4193940;28;20040;-83
2023/06/01 09:22:06;;;;;;;6.68;1.20;;;13.90;99.90;;;;;;4204310;28;20514;-83
2023/06/01 09:24:22;;;;;;;9.35;1.73;;;13.90;99.90;;;;;;4213346;28;20126;-83
2023/06/01 09:26:27;;;;;;;4.95;1.98;;;14.00;99.90;;;;;;4215436;28;20075;-83
2023/06/01 09:28:27;;;;;;;6.47;1.27;;;14.00;99.90;;;;;;4216376;28;20083;-83
2023/06/01 09:30:40;;;;;;;5.22;1.85;;;14.10;99.90;;;;;;4215883;28;20043;-83
2023/06/01 09:32:41;;;;;;;8.85;1.88;;;14.10;99.90;;;;;;4197449;28;20559;-82
2023/06/01 09:34:45;;;;;;;6.82;1.77;;;14.10;99.90;;;;;;4215705;28;20051;-84
2023/06/01 09:36:51;;;;;;;6.63;1.83;;;14.10;99.90;;;;;;4194511;28;20489;-87
2023/06/01 09:39:00;;;;;;;11.32;2.40;;;14.00;99.90;;;;;;4197812;28;20151;-87
2023/06/01 09:41:02;;;;;;;9.38;4.18;;;14.00;99.90;;;;;;4215314;28;20058;-86
2023/06/01 09:43:25;;;;;;;8.32;1.45;;;14.00;99.90;;;;;;4190801;28;20036;-86
2023/06/01 09:45:25;;;;;;;6.72;2.13;;;14.10;99.90;;;;;;4197043;28;20163;-84
2023/06/01 09:47:28;;;;;;;8.65;1.70;;;14.10;99.90;;;;;;4215367;28;20442;-84
2023/06/01 09:49:39;;;;;;;8.25;1.75;;;14.10;99.90;;;;;;4215070;28;20047;-85
2023/06/01 09:51:40;;;;;;;9.73;2.10;;;14.20;99.90;;;;;;4215286;28;20054;-84
2023/06/01 09:53:42;;;;;;;4.88;2.05;;;14.30;99.90;;;;;;4208709;28;20182;-84
2023/06/01 09:56:01;;;;;;;5.05;1.60;;;14.30;99.90;;;;;;4208374;28;20072;-84
2023/06/01 09:58:21;;;;;;;8.93;1.50;;;14.40;99.90;;;;;;4215236;28;20492;-84
2023/06/01 10:00:25;;;;;;;6.60;1.90;;;14.50;99.90;;;;;;4214924;28;20043;-84
2023/06/01 10:02:25;;;;;;;7.25;1.75;;;14.50;99.90;;;;;;4214386;28;20036;-84
2023/06/01 10:04:28;;;;;;;6.47;1.92;;;14.60;99.90;;;;;;4196826;28;20477;-84
2023/06/01 10:06:33;;;;;;;8.32;1.70;;;14.60;99.90;;;;;;4213459;28;20127;-84
2023/06/01 10:08:35;;;;;;;4.85;1.88;;;14.70;99.90;;;;;;4197676;28;20155;-84
2023/06/01 10:10:36;;;;;;;6.28;1.85;;;14.80;99.90;;;;;;4197193;28;20078;-84
2023/06/01 10:12:37;;;;;;;17.30;3.50;;;14.70;99.90;;;;;;4214419;28;20044;-84
2023/06/01 10:14:39;;;;;;;11.98;2.20;;;14.70;99.90;;;;;;4196898;28;20052;-84
2023/06/01 10:16:40;;;;;;;9.45;2.13;;;14.70;99.90;;;;;;4214185;28;20083;-84
2023/06/01 10:18:42;;;;;;;11.52;2.40;;;14.70;99.90;;;;;;4178684;28;20143;-84
2023/06/01 10:20:44;;;;;;;8.55;2.10;;;14.70;99.90;;;;;;4209277;28;20051;-83
2023/06/01 10:22:46;;;;;;;6.35;1.70;;;14.70;99.90;;;;;;4214563;28;20055;-84
2023/06/01 10:24:47;;;;;;;11.07;2.55;;;14.70;99.90;;;;;;4215267;28;20059;-84
2023/06/01 10:27:16;;;;;;;11.80;2.38;;;14.60;99.90;;;;;;4196197;28;20512;-84
2023/06/01 10:29:18;;;;;;;6.75;1.80;;;14.70;99.90;;;;;;4215207;28;20044;-84
2023/06/01 10:31:39;;;;;;;4.95;1.83;;;14.80;99.90;;;;;;4215110;28;20036;-84
2023/06/01 10:33:54;;;;;;;6.47;2.05;;;14.90;99.90;;;;;;4215198;28;20405;-84
2023/06/01 10:35:54;;;;;;;7.05;1.90;;;14.90;99.90;;;;;;4196816;28;20078;-84
2023/06/01 10:38:12;;;;;;;6.10;1.70;;;14.90;99.90;;;;;;4214500;28;20463;-84